Autodesk ROA 2006-2019 | ADSK

Current and historical return on assets (ROA) values for Autodesk (ADSK) over the last 10 years. Return on assets can be defined as an indicator of how profitable a company is relative to its total assets. Calculated by dividing a company's operating earnings by its total assets. Autodesk ROA for the three months ending October 31, 2019 was 4.78%.
Autodesk ROA - Return on Assets Historical Data
Date TTM Net Income Total Assets Return on Assets
2019-10-31 $0.15B $5.04B 3.04%
2019-07-31 $0.06B $4.87B 1.25%
2019-04-30 $-0.02B $4.81B -0.51%
2019-01-31 $-0.08B $4.73B -1.97%
2018-10-31 $-0.32B $3.77B -8.16%
2018-07-31 $-0.42B $3.83B -10.37%
2018-04-30 $-0.52B $3.91B -12.58%
2018-01-31 $-0.57B $4.11B -13.32%
2017-10-31 $-0.57B $4.15B -12.79%
2017-07-31 $-0.59B $4.35B -12.82%
2017-04-30 $-0.54B $4.43B -11.39%
2017-01-31 $-0.58B $4.80B -11.71%
2016-10-31 $-0.45B $4.83B -8.66%
2016-07-31 $-0.35B $5.05B -6.61%
2016-04-30 $-0.52B $5.21B -9.74%
2016-01-31 $-0.33B $5.52B -6.35%
2015-10-31 $-0.28B $5.22B -5.57%
2015-07-31 $-0.23B $5.34B -4.59%
2015-04-30 $0.07B $4.78B 1.53%
2015-01-31 $0.08B $4.91B 1.73%
2014-10-31 $0.12B $4.74B 2.65%
2014-07-31 $0.17B $4.70B 3.74%
2014-04-30 $0.20B $4.65B 4.54%
2014-01-31 $0.23B $4.60B 5.28%
2013-10-31 $0.25B $4.32B 5.86%
2013-07-31 $0.22B $4.22B 5.46%
2013-04-30 $0.23B $4.29B 5.84%
2013-01-31 $0.25B $4.31B 6.87%
2012-10-31 $0.25B $3.43B 7.34%
2012-07-31 $0.29B $3.38B 8.94%
2012-04-30 $0.30B $3.32B 9.42%
2012-01-31 $0.29B $3.23B 9.41%
2011-10-31 $0.28B $3.01B 9.43%
2011-07-31 $0.26B $2.97B 9.11%
2011-04-30 $0.25B $2.90B 9.08%
2011-01-31 $0.21B $2.79B 8.20%
2010-10-31 $0.20B $2.58B 8.00%
2010-07-31 $0.18B $2.53B 7.23%
2010-04-30 $0.13B $2.50B 5.35%
2010-01-31 $0.06B $2.45B 2.53%
2009-10-31 $-0.10B $2.32B -4.12%
2009-07-31 $-0.02B $2.31B -0.90%
2009-04-30 $0.06B $2.27B 2.44%
2009-01-31 $0.19B $2.42B 7.89%
2008-10-31 $0.39B $2.37B 16.88%
2008-07-31 $0.37B $2.44B 16.71%
2008-04-30 $0.37B $2.14B 17.95%
2008-01-31 $0.36B $2.21B 17.70%
2007-10-31 $0.36B $1.99B 18.60%
2007-07-31 $0.33B $1.88B 18.11%
2007-04-30 $0.32B $1.99B 18.88%
2007-01-31 $0.29B $1.80B 18.37%
2006-10-31 $0.28B $1.60B 19.01%
2006-07-31 $0.32B $1.48B 22.79%
2006-04-30 $0.31B $1.44B 23.31%
2006-01-31 $0.33B $1.36B 26.68%
2005-10-31 $0.31B $1.29B 26.20%
Sector Industry Market Cap Revenue
Computer and Technology Computer Software $42.356B $2.570B
Autodesk, Inc., is a leader in 3D design, engineering and entertainment software. Since its introduction of AutoCAD software in 1982, Autodesk continues to develop the broadest portfolio of 3D software for global markets. Customers across the manufacturing, architecture, building, construction, and media and entertainment industries-including the last 19 Academy Award winners for Best Visual Effects-use Autodesk software to design, visualize, and simulate their ideas before they're ever built or created. From blockbuster visual effects and buildings that create their own energy, to electric cars and the batteries that power them, the work of our 3D software customers is everywhere you look. Through their apps for iPhone, iPad, iPod, and Android, they're also making design technology accessible to professional designers and amateur designers, homeowners, students, and casual creators - anyone who wants to create and share their ideas with the world.
Stock Name Country Market Cap PE Ratio
Microsoft (MSFT) United States $1000.000B 33.30
Oracle (ORCL) United States $177.800B 16.50
Adobe (ADBE) United States $167.191B 53.05
SAP SE (SAP) Germany $163.869B 30.71
Salesforce (CRM) United States $162.046B 135.33
Intuit (INTU) United States $72.069B 48.92
VMware (VMW) United States $62.388B 33.90
Dassault Systemes SA (DASTY) France $44.817B 49.94
Synopsys (SNPS) United States $22.534B 43.14
ANSYS (ANSS) United States $22.463B 49.59
Cadence Design Systems (CDNS) United States $20.500B 48.07
SS&C Technologies Holdings (SSNC) United States $15.984B 18.17
Citrix Systems (CTXS) United States $15.220B 27.96
Open Text (OTEX) Canada $12.665B 39.01
Aspen Technology (AZPN) United States $9.576B 35.82
PTC (PTC) United States $9.334B 62.17
Trend Micro (TMICY) Japan $7.337B 27.36
Pegasystems (PEGA) United States $6.819B 0.00
Nuance Communications (NUAN) United States $5.615B 22.71
Konami (KNMCY) Japan $5.518B 18.21
Manhattan Associates (MANH) United States $5.450B 58.42
ACI Worldwide (ACIW) United States $4.381B 40.75
Blackbaud (BLKB) United States $4.038B 56.23
Verint Systems (VRNT) United States $3.914B 22.70
Cornerstone OnDemand (CSOD) United States $3.885B 399.88
Descartes Systems Group (DSGX) Canada $3.874B 115.10
PROS Holdings (PRO) United States $2.861B 0.00
Bottomline Technologies (EPAY) United States $2.391B 104.58
CommVault Systems (CVLT) United States $2.143B 83.73
Progress Software (PRGS) United States $2.129B 20.85
MicroStrategy (MSTR) United States $1.506B 444.61
Sapiens (SPNS) Israel $1.293B 37.45
QAD (QADB) United States $0.760B 466.88
Simulations Plus (SLP) United States $0.587B 66.54
Magic Software Enterprises (MGIC) Israel $0.516B 18.49
American Software (AMSWA) United States $0.479B 51.67
Rosetta Stone (RST) United States $0.442B 0.00
Avid Technology (AVID) United States $0.396B 21.37
Smith Micro Software (SMSI) United States $0.193B 17.28
Icad Inc (ICAD) United States $0.186B 0.00
GlobalSCAPE (GSB) United States $0.184B 14.93
ServiceSource (SREV) United States $0.174B 0.00
OptimizeRx (OPRX) United States $0.150B 0.00
Park City (PCYG) United States $0.098B 35.29
NetSol Technologies (NTWK) United States $0.045B 5.88
GSE Systems (GVP) United States $0.036B 12.00
Neonode (NEON) Sweden $0.024B 0.00
BSQUARE (BSQR) United States $0.020B 0.00
CounterPath (CPAH) Canada $0.015B 0.00